sensor_id;sensor_type;location;lat;lon;timestamp;P1;P2;P0
56175;PMS5003;63065;51.082;17.016;2023-02-11T00:02:01;82;73;
56175;PMS5003;63065;51.082;17.016;2023-02-11T00:04:26;91;82;
56175;PMS5003;63065;51.082;17.016;2023-02-11T00:06:52;95;80;
56175;PMS5003;63065;51.082;17.016;2023-02-11T00:09:17;86;81;
56175;PMS5003;63065;51.082;17.016;2023-02-11T00:11:43;84;77;
56175;PMS5003;63065;51.082;17.016;2023-02-11T00:14:08;80;68;
56175;PMS5003;63065;51.082;17.016;2023-02-11T00:16:34;82;73;
56175;PMS5003;63065;51.082;17.016;2023-02-11T00:19:00;81;79;
56175;PMS5003;63065;51.082;17.016;2023-02-11T00:21:25;89;79;
56175;PMS5003;63065;51.082;17.016;2023-02-11T00:23:50;81;77;
56175;PMS5003;63065;51.082;17.016;2023-02-11T00:26:17;86;77;
56175;PMS5003;63065;51.082;17.016;2023-02-11T00:28:41;85;77;
56175;PMS5003;63065;51.082;17.016;2023-02-11T00:31:06;92;83;
56175;PMS5003;63065;51.082;17.016;2023-02-11T00:33:31;90;79;
56175;PMS5003;63065;51.082;17.016;2023-02-11T00:35:57;88;80;
56175;PMS5003;63065;51.082;17.016;2023-02-11T00:38:22;82;80;
56175;PMS5003;63065;51.082;17.016;2023-02-11T00:40:48;97;86;
56175;PMS5003;63065;51.082;17.016;2023-02-11T00:43:13;80;76;
56175;PMS5003;63065;51.082;17.016;2023-02-11T00:45:38;80;74;
56175;PMS5003;63065;51.082;17.016;2023-02-11T00:48:04;101;92;
56175;PMS5003;63065;51.082;17.016;2023-02-11T00:50:29;97;85;
56175;PMS5003;63065;51.082;17.016;2023-02-11T00:52:54;85;79;
56175;PMS5003;63065;51.082;17.016;2023-02-11T00:55:20;83;80;
56175;PMS5003;63065;51.082;17.016;2023-02-11T00:57:45;107;94;
56175;PMS5003;63065;51.082;17.016;2023-02-11T01:00:12;92;84;
56175;PMS5003;63065;51.082;17.016;2023-02-11T01:02:36;90;81;
56175;PMS5003;63065;51.082;17.016;2023-02-11T01:05:03;81;78;
56175;PMS5003;63065;51.082;17.016;2023-02-11T01:07:28;88;81;
56175;PMS5003;63065;51.082;17.016;2023-02-11T01:09:53;91;81;
56175;PMS5003;63065;51.082;17.016;2023-02-11T01:12:19;89;81;
56175;PMS5003;63065;51.082;17.016;2023-02-11T01:14:44;86;84;
56175;PMS5003;63065;51.082;17.016;2023-02-11T01:17:09;93;82;
56175;PMS5003;63065;51.082;17.016;2023-02-11T01:19:35;89;84;
56175;PMS5003;63065;51.082;17.016;2023-02-11T01:21:59;99;90;
56175;PMS5003;63065;51.082;17.016;2023-02-11T01:24:25;96;87;
56175;PMS5003;63065;51.082;17.016;2023-02-11T01:26:51;89;79;
56175;PMS5003;63065;51.082;17.016;2023-02-11T01:29:16;83;73;
56175;PMS5003;63065;51.082;17.016;2023-02-11T01:31:42;111;95;
56175;PMS5003;63065;51.082;17.016;2023-02-11T01:34:07;89;82;
56175;PMS5003;63065;51.082;17.016;2023-02-11T01:36:33;102;87;
56175;PMS5003;63065;51.082;17.016;2023-02-11T01:38:58;89;76;
56175;PMS5003;63065;51.082;17.016;2023-02-11T01:41:23;98;88;
56175;PMS5003;63065;51.082;17.016;2023-02-11T01:43:48;81;75;
56175;PMS5003;63065;51.082;17.016;2023-02-11T01:48:41;93;85;
56175;PMS5003;63065;51.082;17.016;2023-02-11T01:51:07;100;87;
56175;PMS5003;63065;51.082;17.016;2023-02-11T01:53:31;79;77;
56175;PMS5003;63065;51.082;17.016;2023-02-11T01:55:57;85;76;
56175;PMS5003;63065;51.082;17.016;2023-02-11T01:58:23;95;86;
56175;PMS5003;63065;51.082;17.016;2023-02-11T02:00:48;78;77;
56175;PMS5003;63065;51.082;17.016;2023-02-11T02:03:14;80;74;
56175;PMS5003;63065;51.082;17.016;2023-02-11T02:05:41;84;78;
56175;PMS5003;63065;51.082;17.016;2023-02-11T02:08:05;91;80;
56175;PMS5003;63065;51.082;17.016;2023-02-11T02:10:30;84;75;
56175;PMS5003;63065;51.082;17.016;2023-02-11T02:12:56;79;71;
56175;PMS5003;63065;51.082;17.016;2023-02-11T02:15:23;83;76;
56175;PMS5003;63065;51.082;17.016;2023-02-11T02:17:49;72;67;
56175;PMS5003;63065;51.082;17.016;2023-02-11T02:20:18;79;73;
56175;PMS5003;63065;51.082;17.016;2023-02-11T02:27:33;69;67;
56175;PMS5003;63065;51.082;17.016;2023-02-11T02:29:59;79;69;
56175;PMS5003;63065;51.082;17.016;2023-02-11T02:32:22;77;69;
56175;PMS5003;63065;51.082;17.016;2023-02-11T02:34:47;81;76;
56175;PMS5003;63065;51.082;17.016;2023-02-11T02:37:11;76;70;
56175;PMS5003;63065;51.082;17.016;2023-02-11T02:39:36;72;68;
56175;PMS5003;63065;51.082;17.016;2023-02-11T02:42:01;71;68;
56175;PMS5003;63065;51.082;17.016;2023-02-11T02:44:27;74;70;
56175;PMS5003;63065;51.082;17.016;2023-02-11T02:46:52;77;67;
56175;PMS5003;63065;51.082;17.016;2023-02-11T02:49:18;82;72;
56175;PMS5003;63065;51.082;17.016;2023-02-11T02:51:49;74;68;
56175;PMS5003;63065;51.082;17.016;2023-02-11T02:56:35;81;72;
56175;PMS5003;63065;51.082;17.016;2023-02-11T02:59:03;77;71;
56175;PMS5003;63065;51.082;17.016;2023-02-11T03:01:28;77;70;
56175;PMS5003;63065;51.082;17.016;2023-02-11T03:03:52;81;77;
56175;PMS5003;63065;51.082;17.016;2023-02-11T03:06:19;92;79;
56175;PMS5003;63065;51.082;17.016;2023-02-11T03:08:42;79;72;
56175;PMS5003;63065;51.082;17.016;2023-02-11T03:11:08;80;74;
56175;PMS5003;63065;51.082;17.016;2023-02-11T03:13:34;74;68;
56175;PMS5003;63065;51.082;17.016;2023-02-11T03:15:59;80;76;
56175;PMS5003;63065;51.082;17.016;2023-02-11T03:18:25;73;69;
56175;PMS5003;63065;51.082;17.016;2023-02-11T03:20:50;92;73;
56175;PMS5003;63065;51.082;17.016;2023-02-11T03:23:15;90;76;
56175;PMS5003;63065;51.082;17.016;2023-02-11T03:25:41;85;73;
56175;PMS5003;63065;51.082;17.016;2023-02-11T03:28:07;77;71;
56175;PMS5003;63065;51.082;17.016;2023-02-11T03:30:31;89;81;
56175;PMS5003;63065;51.082;17.016;2023-02-11T03:32:56;85;83;
56175;PMS5003;63065;51.082;17.016;2023-02-11T03:35:21;91;83;
56175;PMS5003;63065;51.082;17.016;2023-02-11T03:37:48;87;84;
56175;PMS5003;63065;51.082;17.016;2023-02-11T03:40:12;81;78;
56175;PMS5003;63065;51.082;17.016;2023-02-11T03:42:37;90;81;
56175;PMS5003;63065;51.082;17.016;2023-02-11T03:45:02;84;77;
56175;PMS5003;63065;51.082;17.016;2023-02-11T03:47:27;81;77;
56175;PMS5003;63065;51.082;17.016;2023-02-11T03:49:53;86;77;
56175;PMS5003;63065;51.082;17.016;2023-02-11T03:52:18;84;74;
56175;PMS5003;63065;51.082;17.016;2023-02-11T03:54:44;91;83;
56175;PMS5003;63065;51.082;17.016;2023-02-11T03:57:09;89;75;
56175;PMS5003;63065;51.082;17.016;2023-02-11T04:02:00;82;75;
56175;PMS5003;63065;51.082;17.016;2023-02-11T04:04:25;93;77;
56175;PMS5003;63065;51.082;17.016;2023-02-11T04:06:51;77;70;
56175;PMS5003;63065;51.082;17.016;2023-02-11T04:09:16;78;72;
56175;PMS5003;63065;51.082;17.016;2023-02-11T04:11:42;78;70;
56175;PMS5003;63065;51.082;17.016;2023-02-11T04:14:07;70;66;
56175;PMS5003;63065;51.082;17.016;2023-02-11T04:16:33;81;71;
56175;PMS5003;63065;51.082;17.016;2023-02-11T04:18:58;84;73;
56175;PMS5003;63065;51.082;17.016;2023-02-11T04:21:24;73;67;
56175;PMS5003;63065;51.082;17.016;2023-02-11T04:23:49;77;69;
56175;PMS5003;63065;51.082;17.016;2023-02-11T04:26:15;72;63;
56175;PMS5003;63065;51.082;17.016;2023-02-11T04:28:41;85;78;
56175;PMS5003;63065;51.082;17.016;2023-02-11T04:31:05;68;62;
56175;PMS5003;63065;51.082;17.016;2023-02-11T04:33:31;73;69;
56175;PMS5003;63065;51.082;17.016;2023-02-11T04:35:56;83;76;
56175;PMS5003;63065;51.082;17.016;2023-02-11T04:38:22;77;67;
56175;PMS5003;63065;51.082;17.016;2023-02-11T04:40:48;77;71;
56175;PMS5003;63065;51.082;17.016;2023-02-11T04:43:13;82;70;
56175;PMS5003;63065;51.082;17.016;2023-02-11T04:45:38;76;68;
56175;PMS5003;63065;51.082;17.016;2023-02-11T04:48:04;75;70;
56175;PMS5003;63065;51.082;17.016;2023-02-11T04:50:29;93;72;
56175;PMS5003;63065;51.082;17.016;2023-02-11T04:52:55;71;68;
56175;PMS5003;63065;51.082;17.016;2023-02-11T04:55:20;85;73;
56175;PMS5003;63065;51.082;17.016;2023-02-11T04:57:45;75;73;
56175;PMS5003;63065;51.082;17.016;2023-02-11T05:00:11;82;73;
56175;PMS5003;63065;51.082;17.016;2023-02-11T05:02:37;74;71;
56175;PMS5003;63065;51.082;17.016;2023-02-11T05:05:03;84;78;
56175;PMS5003;63065;51.082;17.016;2023-02-11T05:07:28;80;69;
56175;PMS5003;63065;51.082;17.016;2023-02-11T05:09:53;79;72;
56175;PMS5003;63065;51.082;17.016;2023-02-11T05:12:19;75;68;
56175;PMS5003;63065;51.082;17.016;2023-02-11T05:14:44;83;77;
56175;PMS5003;63065;51.082;17.016;2023-02-11T05:17:09;79;68;
56175;PMS5003;63065;51.082;17.016;2023-02-11T05:19:35;84;72;
56175;PMS5003;63065;51.082;17.016;2023-02-11T05:22:00;77;72;
56175;PMS5003;63065;51.082;17.016;2023-02-11T05:24:26;86;72;
56175;PMS5003;63065;51.082;17.016;2023-02-11T05:26:51;79;74;
56175;PMS5003;63065;51.082;17.016;2023-02-11T05:29:17;76;71;
56175;PMS5003;63065;51.082;17.016;2023-02-11T05:31:42;77;76;
56175;PMS5003;63065;51.082;17.016;2023-02-11T05:34:08;78;72;
56175;PMS5003;63065;51.082;17.016;2023-02-11T05:36:33;84;77;
56175;PMS5003;63065;51.082;17.016;2023-02-11T05:38:59;72;65;
56175;PMS5003;63065;51.082;17.016;2023-02-11T05:41:24;77;71;
56175;PMS5003;63065;51.082;17.016;2023-02-11T05:43:50;86;76;
56175;PMS5003;63065;51.082;17.016;2023-02-11T05:46:16;86;77;
56175;PMS5003;63065;51.082;17.016;2023-02-11T05:48:41;81;73;
56175;PMS5003;63065;51.082;17.016;2023-02-11T05:51:07;71;68;
56175;PMS5003;63065;51.082;17.016;2023-02-11T05:53:32;90;81;
56175;PMS5003;63065;51.082;17.016;2023-02-11T05:55:58;81;70;
56175;PMS5003;63065;51.082;17.016;2023-02-11T05:58:23;72;68;
56175;PMS5003;63065;51.082;17.016;2023-02-11T06:00:48;86;73;
56175;PMS5003;63065;51.082;17.016;2023-02-11T06:03:14;88;77;
56175;PMS5003;63065;51.082;17.016;2023-02-11T06:05:39;74;70;
56175;PMS5003;63065;51.082;17.016;2023-02-11T06:08:04;85;72;
56175;PMS5003;63065;51.082;17.016;2023-02-11T06:10:30;77;75;
56175;PMS5003;63065;51.082;17.016;2023-02-11T06:12:56;71;66;
56175;PMS5003;63065;51.082;17.016;2023-02-11T06:15:21;74;67;
56175;PMS5003;63065;51.082;17.016;2023-02-11T06:17:47;76;71;
56175;PMS5003;63065;51.082;17.016;2023-02-11T06:20:12;81;71;
56175;PMS5003;63065;51.082;17.016;2023-02-11T06:22:37;76;73;
56175;PMS5003;63065;51.082;17.016;2023-02-11T06:25:04;75;72;
56175;PMS5003;63065;51.082;17.016;2023-02-11T06:27:29;78;66;
56175;PMS5003;63065;51.082;17.016;2023-02-11T06:29:55;80;69;
56175;PMS5003;63065;51.082;17.016;2023-02-11T06:32:20;82;78;
56175;PMS5003;63065;51.082;17.016;2023-02-11T06:34:46;78;66;
56175;PMS5003;63065;51.082;17.016;2023-02-11T06:37:11;78;73;
56175;PMS5003;63065;51.082;17.016;2023-02-11T06:39:36;72;70;
56175;PMS5003;63065;51.082;17.016;2023-02-11T06:42:02;73;66;
56175;PMS5003;63065;51.082;17.016;2023-02-11T06:44:27;79;74;
56175;PMS5003;63065;51.082;17.016;2023-02-11T06:46:52;89;77;
56175;PMS5003;63065;51.082;17.016;2023-02-11T06:49:17;81;71;
56175;PMS5003;63065;51.082;17.016;2023-02-11T06:51:43;67;60;
56175;PMS5003;63065;51.082;17.016;2023-02-11T06:54:09;77;67;
56175;PMS5003;63065;51.082;17.016;2023-02-11T06:56:34;70;64;
56175;PMS5003;63065;51.082;17.016;2023-02-11T06:58:59;63;57;
56175;PMS5003;63065;51.082;17.016;2023-02-11T07:01:25;66;61;
56175;PMS5003;63065;51.082;17.016;2023-02-11T07:03:51;66;62;
56175;PMS5003;63065;51.082;17.016;2023-02-11T07:06:17;70;64;
56175;PMS5003;63065;51.082;17.016;2023-02-11T07:08:41;70;65;
56175;PMS5003;63065;51.082;17.016;2023-02-11T07:11:09;72;67;
56175;PMS5003;63065;51.082;17.016;2023-02-11T07:13:33;75;66;
56175;PMS5003;63065;51.082;17.016;2023-02-11T07:15:58;75;70;
56175;PMS5003;63065;51.082;17.016;2023-02-11T07:18:24;64;63;
56175;PMS5003;63065;51.082;17.016;2023-02-11T07:20:49;75;63;
56175;PMS5003;63065;51.082;17.016;2023-02-11T07:23:14;71;67;
56175;PMS5003;63065;51.082;17.016;2023-02-11T07:25:39;84;72;
56175;PMS5003;63065;51.082;17.016;2023-02-11T07:28:05;56;53;
56175;PMS5003;63065;51.082;17.016;2023-02-11T07:30:31;77;69;
56175;PMS5003;63065;51.082;17.016;2023-02-11T07:32:55;66;64;
56175;PMS5003;63065;51.082;17.016;2023-02-11T07:35:21;66;64;
56175;PMS5003;63065;51.082;17.016;2023-02-11T07:37:46;68;61;
56175;PMS5003;63065;51.082;17.016;2023-02-11T07:40:11;62;60;
56175;PMS5003;63065;51.082;17.016;2023-02-11T07:42:36;71;61;
56175;PMS5003;63065;51.082;17.016;2023-02-11T07:45:02;66;60;
56175;PMS5003;63065;51.082;17.016;2023-02-11T07:47:27;62;57;
56175;PMS5003;63065;51.082;17.016;2023-02-11T07:49:52;82;71;
56175;PMS5003;63065;51.082;17.016;2023-02-11T07:52:17;61;58;
56175;PMS5003;63065;51.082;17.016;2023-02-11T07:54:43;62;56;
56175;PMS5003;63065;51.082;17.016;2023-02-11T07:57:08;67;63;
56175;PMS5003;63065;51.082;17.016;2023-02-11T07:59:34;76;64;
56175;PMS5003;63065;51.082;17.016;2023-02-11T08:01:59;68;62;
56175;PMS5003;63065;51.082;17.016;2023-02-11T08:04:25;74;61;
56175;PMS5003;63065;51.082;17.016;2023-02-11T08:06:50;64;61;
56175;PMS5003;63065;51.082;17.016;2023-02-11T08:09:15;67;67;
56175;PMS5003;63065;51.082;17.016;2023-02-11T08:11:41;73;69;
56175;PMS5003;63065;51.082;17.016;2023-02-11T08:14:07;66;59;
56175;PMS5003;63065;51.082;17.016;2023-02-11T08:16:32;64;60;
56175;PMS5003;63065;51.082;17.016;2023-02-11T08:18:59;71;65;
56175;PMS5003;63065;51.082;17.016;2023-02-11T08:21:23;64;59;
56175;PMS5003;63065;51.082;17.016;2023-02-11T08:23:48;65;59;
56175;PMS5003;63065;51.082;17.016;2023-02-11T08:26:15;70;61;
56175;PMS5003;63065;51.082;17.016;2023-02-11T08:28:40;72;64;
56175;PMS5003;63065;51.082;17.016;2023-02-11T08:31:05;62;60;
56175;PMS5003;63065;51.082;17.016;2023-02-11T08:33:30;59;56;
56175;PMS5003;63065;51.082;17.016;2023-02-11T08:35:56;67;59;
56175;PMS5003;63065;51.082;17.016;2023-02-11T08:38:21;67;62;
56175;PMS5003;63065;51.082;17.016;2023-02-11T08:40:46;67;62;
56175;PMS5003;63065;51.082;17.016;2023-02-11T08:43:12;76;70;
56175;PMS5003;63065;51.082;17.016;2023-02-11T08:45:37;68;62;
56175;PMS5003;63065;51.082;17.016;2023-02-11T08:48:03;68;60;
56175;PMS5003;63065;51.082;17.016;2023-02-11T08:50:29;74;68;
56175;PMS5003;63065;51.082;17.016;2023-02-11T08:52:54;71;62;
56175;PMS5003;63065;51.082;17.016;2023-02-11T08:55:20;63;61;
56175;PMS5003;63065;51.082;17.016;2023-02-11T08:57:45;69;57;
56175;PMS5003;63065;51.082;17.016;2023-02-11T09:00:11;101;89;
56175;PMS5003;63065;51.082;17.016;2023-02-11T09:02:36;92;82;
56175;PMS5003;63065;51.082;17.016;2023-02-11T09:05:01;89;81;
56175;PMS5003;63065;51.082;17.016;2023-02-11T09:07:27;95;82;
56175;PMS5003;63065;51.082;17.016;2023-02-11T09:09:53;79;72;
56175;PMS5003;63065;51.082;17.016;2023-02-11T09:12:18;83;78;
56175;PMS5003;63065;51.082;17.016;2023-02-11T09:14:44;80;70;
56175;PMS5003;63065;51.082;17.016;2023-02-11T09:17:09;79;71;
56175;PMS5003;63065;51.082;17.016;2023-02-11T09:19:35;80;74;
56175;PMS5003;63065;51.082;17.016;2023-02-11T09:22:01;69;62;
56175;PMS5003;63065;51.082;17.016;2023-02-11T09:24:27;57;53;
56175;PMS5003;63065;51.082;17.016;2023-02-11T09:26:52;59;52;
56175;PMS5003;63065;51.082;17.016;2023-02-11T09:29:17;73;57;
56175;PMS5003;63065;51.082;17.016;2023-02-11T09:31:43;63;60;
56175;PMS5003;63065;51.082;17.016;2023-02-11T09:34:09;61;56;
56175;PMS5003;63065;51.082;17.016;2023-02-11T09:36:34;65;60;
56175;PMS5003;63065;51.082;17.016;2023-02-11T09:39:00;69;62;
56175;PMS5003;63065;51.082;17.016;2023-02-11T09:41:30;56;50;
56175;PMS5003;63065;51.082;17.016;2023-02-11T09:43:50;58;54;
56175;PMS5003;63065;51.082;17.016;2023-02-11T09:46:15;53;47;
56175;PMS5003;63065;51.082;17.016;2023-02-11T09:48:41;49;43;
56175;PMS5003;63065;51.082;17.016;2023-02-11T09:51:05;47;44;
56175;PMS5003;63065;51.082;17.016;2023-02-11T09:53:34;57;54;
56175;PMS5003;63065;51.082;17.016;2023-02-11T09:55:58;51;47;
56175;PMS5003;63065;51.082;17.016;2023-02-11T09:58:24;48;45;
56175;PMS5003;63065;51.082;17.016;2023-02-11T10:00:50;48;46;
56175;PMS5003;63065;51.082;17.016;2023-02-11T10:03:20;66;52;
56175;PMS5003;63065;51.082;17.016;2023-02-11T10:05:46;51;46;
56175;PMS5003;63065;51.082;17.016;2023-02-11T10:08:06;48;43;
56175;PMS5003;63065;51.082;17.016;2023-02-11T10:10:34;60;52;
56175;PMS5003;63065;51.082;17.016;2023-02-11T10:12:59;47;43;
56175;PMS5003;63065;51.082;17.016;2023-02-11T10:15:23;51;48;
56175;PMS5003;63065;51.082;17.016;2023-02-11T10:17:50;48;48;
56175;PMS5003;63065;51.082;17.016;2023-02-11T10:20:16;54;45;
56175;PMS5003;63065;51.082;17.016;2023-02-11T10:22:39;54;47;
56175;PMS5003;63065;51.082;17.016;2023-02-11T10:25:07;48;42;
56175;PMS5003;63065;51.082;17.016;2023-02-11T10:27:29;56;45;
56175;PMS5003;63065;51.082;17.016;2023-02-11T10:29:55;46;41;
56175;PMS5003;63065;51.082;17.016;2023-02-11T10:32:24;51;46;
56175;PMS5003;63065;51.082;17.016;2023-02-11T10:34:45;59;52;
56175;PMS5003;63065;51.082;17.016;2023-02-11T10:37:10;51;47;
56175;PMS5003;63065;51.082;17.016;2023-02-11T10:39:36;50;47;
56175;PMS5003;63065;51.082;17.016;2023-02-11T10:42:01;54;47;
56175;PMS5003;63065;51.082;17.016;2023-02-11T10:44:28;47;44;
56175;PMS5003;63065;51.082;17.016;2023-02-11T10:46:52;55;54;
56175;PMS5003;63065;51.082;17.016;2023-02-11T10:51:44;59;52;
56175;PMS5003;63065;51.082;17.016;2023-02-11T10:54:10;72;55;
56175;PMS5003;63065;51.082;17.016;2023-02-11T10:56:35;58;52;
56175;PMS5003;63065;51.082;17.016;2023-02-11T10:59:01;56;53;
56175;PMS5003;63065;51.082;17.016;2023-02-11T11:03:51;57;53;
56175;PMS5003;63065;51.082;17.016;2023-02-11T11:06:26;65;56;
56175;PMS5003;63065;51.082;17.016;2023-02-11T11:08:43;53;47;
56175;PMS5003;63065;51.082;17.016;2023-02-11T11:11:09;49;47;
56175;PMS5003;63065;51.082;17.016;2023-02-11T11:13:34;59;51;
56175;PMS5003;63065;51.082;17.016;2023-02-11T11:18:24;58;52;
56175;PMS5003;63065;51.082;17.016;2023-02-11T11:20:54;59;54;
56175;PMS5003;63065;51.082;17.016;2023-02-11T11:23:15;52;48;
56175;PMS5003;63065;51.082;17.016;2023-02-11T11:25:41;44;42;
56175;PMS5003;63065;51.082;17.016;2023-02-11T11:28:05;51;50;
56175;PMS5003;63065;51.082;17.016;2023-02-11T11:30:32;58;50;
56175;PMS5003;63065;51.082;17.016;2023-02-11T11:32:57;57;53;
56175;PMS5003;63065;51.082;17.016;2023-02-11T11:35:23;55;48;
56175;PMS5003;63065;51.082;17.016;2023-02-11T11:37:51;49;46;
56175;PMS5003;63065;51.082;17.016;2023-02-11T11:40:20;52;48;
56175;PMS5003;63065;51.082;17.016;2023-02-11T11:42:38;55;51;
56175;PMS5003;63065;51.082;17.016;2023-02-11T11:45:21;60;49;
56175;PMS5003;63065;51.082;17.016;2023-02-11T11:47:31;54;51;
56175;PMS5003;63065;51.082;17.016;2023-02-11T11:52:24;51;48;
56175;PMS5003;63065;51.082;17.016;2023-02-11T11:54:46;60;53;
56175;PMS5003;63065;51.082;17.016;2023-02-11T11:57:11;52;51;
56175;PMS5003;63065;51.082;17.016;2023-02-11T11:59:36;52;51;
56175;PMS5003;63065;51.082;17.016;2023-02-11T12:04:35;57;49;
56175;PMS5003;63065;51.082;17.016;2023-02-11T12:06:56;62;53;
56175;PMS5003;63065;51.082;17.016;2023-02-11T12:09:20;55;50;
56175;PMS5003;63065;51.082;17.016;2023-02-11T12:11:50;55;49;
56175;PMS5003;63065;51.082;17.016;2023-02-11T12:14:12;53;44;
56175;PMS5003;63065;51.082;17.016;2023-02-11T12:16:37;56;53;
56175;PMS5003;63065;51.082;17.016;2023-02-11T12:21:27;50;44;
56175;PMS5003;63065;51.082;17.016;2023-02-11T12:23:57;58;50;
56175;PMS5003;63065;51.082;17.016;2023-02-11T12:26:18;58;50;
56175;PMS5003;63065;51.082;17.016;2023-02-11T12:28:48;60;56;
56175;PMS5003;63065;51.082;17.016;2023-02-11T12:31:13;57;46;
56175;PMS5003;63065;51.082;17.016;2023-02-11T12:33:39;60;53;
56175;PMS5003;63065;51.082;17.016;2023-02-11T12:36:01;58;50;
56175;PMS5003;63065;51.082;17.016;2023-02-11T12:40:52;59;55;
56175;PMS5003;63065;51.082;17.016;2023-02-11T12:43:18;54;48;
56175;PMS5003;63065;51.082;17.016;2023-02-11T12:45:43;66;58;
56175;PMS5003;63065;51.082;17.016;2023-02-11T12:48:10;52;45;
56175;PMS5003;63065;51.082;17.016;2023-02-11T12:50:33;54;48;
56175;PMS5003;63065;51.082;17.016;2023-02-11T12:53:01;57;52;
56175;PMS5003;63065;51.082;17.016;2023-02-11T12:55:23;66;55;
56175;PMS5003;63065;51.082;17.016;2023-02-11T12:57:49;59;55;
56175;PMS5003;63065;51.082;17.016;2023-02-11T13:00:14;69;55;
56175;PMS5003;63065;51.082;17.016;2023-02-11T13:02:40;52;49;
56175;PMS5003;63065;51.082;17.016;2023-02-11T13:05:07;50;48;
56175;PMS5003;63065;51.082;17.016;2023-02-11T13:07:31;63;53;
56175;PMS5003;63065;51.082;17.016;2023-02-11T13:09:55;60;53;
56175;PMS5003;63065;51.082;17.016;2023-02-11T13:12:19;53;49;
56175;PMS5003;63065;51.082;17.016;2023-02-11T13:14:45;55;47;
56175;PMS5003;63065;51.082;17.016;2023-02-11T13:17:11;59;53;
56175;PMS5003;63065;51.082;17.016;2023-02-11T13:19:36;56;49;
56175;PMS5003;63065;51.082;17.016;2023-02-11T13:22:04;54;48;
56175;PMS5003;63065;51.082;17.016;2023-02-11T13:24:28;59;50;
56175;PMS5003;63065;51.082;17.016;2023-02-11T13:26:55;53;50;
56175;PMS5003;63065;51.082;17.016;2023-02-11T13:29:21;50;48;
56175;PMS5003;63065;51.082;17.016;2023-02-11T13:31:43;57;49;
56175;PMS5003;63065;51.082;17.016;2023-02-11T13:36:34;60;52;
56175;PMS5003;63065;51.082;17.016;2023-02-11T13:39:01;49;46;
56175;PMS5003;63065;51.082;17.016;2023-02-11T13:46:15;54;49;
56175;PMS5003;63065;51.082;17.016;2023-02-11T13:48:44;60;54;
56175;PMS5003;63065;51.082;17.016;2023-02-11T13:51:07;49;46;
56175;PMS5003;63065;51.082;17.016;2023-02-11T14:00:48;59;50;
56175;PMS5003;63065;51.082;17.016;2023-02-11T14:05:38;57;53;
56175;PMS5003;63065;51.082;17.016;2023-02-11T14:15:20;55;50;
56175;PMS5003;63065;51.082;17.016;2023-02-11T14:17:45;53;46;
56175;PMS5003;63065;51.082;17.016;2023-02-11T14:22:40;51;48;
56175;PMS5003;63065;51.082;17.016;2023-02-11T14:25:03;56;50;
56175;PMS5003;63065;51.082;17.016;2023-02-11T14:27:29;60;53;
56175;PMS5003;63065;51.082;17.016;2023-02-11T14:30:00;52;46;
56175;PMS5003;63065;51.082;17.016;2023-02-11T14:32:22;43;37;
56175;PMS5003;63065;51.082;17.016;2023-02-11T14:34:47;54;51;
56175;PMS5003;63065;51.082;17.016;2023-02-11T14:37:12;63;52;
56175;PMS5003;63065;51.082;17.016;2023-02-11T14:39:39;51;47;
56175;PMS5003;63065;51.082;17.016;2023-02-11T14:42:00;53;46;
56175;PMS5003;63065;51.082;17.016;2023-02-11T14:44:26;57;51;
56175;PMS5003;63065;51.082;17.016;2023-02-11T14:46:51;44;39;
56175;PMS5003;63065;51.082;17.016;2023-02-11T14:49:19;57;49;
56175;PMS5003;63065;51.082;17.016;2023-02-11T14:51:42;55;45;
56175;PMS5003;63065;51.082;17.016;2023-02-11T14:54:08;57;50;
56175;PMS5003;63065;51.082;17.016;2023-02-11T14:56:33;50;44;
56175;PMS5003;63065;51.082;17.016;2023-02-11T14:58:59;55;52;
56175;PMS5003;63065;51.082;17.016;2023-02-11T15:01:26;57;52;
56175;PMS5003;63065;51.082;17.016;2023-02-11T15:03:50;54;49;
56175;PMS5003;63065;51.082;17.016;2023-02-11T15:06:16;55;51;
56175;PMS5003;63065;51.082;17.016;2023-02-11T15:08:42;58;53;
56175;PMS5003;63065;51.082;17.016;2023-02-11T15:11:08;54;47;
56175;PMS5003;63065;51.082;17.016;2023-02-11T15:13:32;51;46;
56175;PMS5003;63065;51.082;17.016;2023-02-11T15:15:58;56;49;
56175;PMS5003;63065;51.082;17.016;2023-02-11T15:18:24;65;58;
56175;PMS5003;63065;51.082;17.016;2023-02-11T15:20:48;53;50;
56175;PMS5003;63065;51.082;17.016;2023-02-11T15:23:16;68;62;
56175;PMS5003;63065;51.082;17.016;2023-02-11T15:25:42;56;50;
56175;PMS5003;63065;51.082;17.016;2023-02-11T15:28:09;58;52;
56175;PMS5003;63065;51.082;17.016;2023-02-11T15:30:31;66;59;
56175;PMS5003;63065;51.082;17.016;2023-02-11T15:32:57;68;62;
56175;PMS5003;63065;51.082;17.016;2023-02-11T15:35:22;59;53;
56175;PMS5003;63065;51.082;17.016;2023-02-11T15:37:47;59;53;
56175;PMS5003;63065;51.082;17.016;2023-02-11T15:40:14;63;55;
56175;PMS5003;63065;51.082;17.016;2023-02-11T15:42:38;61;54;
56175;PMS5003;63065;51.082;17.016;2023-02-11T15:45:08;52;50;
56175;PMS5003;63065;51.082;17.016;2023-02-11T15:47:29;67;56;
56175;PMS5003;63065;51.082;17.016;2023-02-11T15:49:54;50;50;
56175;PMS5003;63065;51.082;17.016;2023-02-11T15:52:21;55;47;
56175;PMS5003;63065;51.082;17.016;2023-02-11T15:54:45;51;49;
56175;PMS5003;63065;51.082;17.016;2023-02-11T15:57:10;57;47;
56175;PMS5003;63065;51.082;17.016;2023-02-11T15:59:36;50;49;
56175;PMS5003;63065;51.082;17.016;2023-02-11T16:02:05;53;48;
56175;PMS5003;63065;51.082;17.016;2023-02-11T16:04:27;61;49;
56175;PMS5003;63065;51.082;17.016;2023-02-11T16:06:53;49;48;
56175;PMS5003;63065;51.082;17.016;2023-02-11T16:09:23;57;49;
56175;PMS5003;63065;51.082;17.016;2023-02-11T16:16:33;66;53;
56175;PMS5003;63065;51.082;17.016;2023-02-11T16:18:59;55;51;
56175;PMS5003;63065;51.082;17.016;2023-02-11T16:21:27;66;58;
56175;PMS5003;63065;51.082;17.016;2023-02-11T16:23:50;62;58;
56175;PMS5003;63065;51.082;17.016;2023-02-11T16:26:20;59;52;
56175;PMS5003;63065;51.082;17.016;2023-02-11T16:28:41;56;54;
56175;PMS5003;63065;51.082;17.016;2023-02-11T16:31:06;63;54;
56175;PMS5003;63065;51.082;17.016;2023-02-11T16:33:31;51;49;
56175;PMS5003;63065;51.082;17.016;2023-02-11T16:35:56;55;51;
56175;PMS5003;63065;51.082;17.016;2023-02-11T16:38:22;46;44;
56175;PMS5003;63065;51.082;17.016;2023-02-11T16:40:48;57;50;
56175;PMS5003;63065;51.082;17.016;2023-02-11T16:43:14;65;57;
56175;PMS5003;63065;51.082;17.016;2023-02-11T16:45:39;56;46;
56175;PMS5003;63065;51.082;17.016;2023-02-11T16:48:05;50;41;
56175;PMS5003;63065;51.082;17.016;2023-02-11T16:50:30;56;47;